DLH5LL EDDM-EDDH
Flight info
| Callsign | DLH5LL |
|---|---|
| Flight time | 1h 2m |
| Altitude | 36000 |
| Route | INPUD2N/26R INPUD Y102 UPALA M726 NARUS DCT ABGUS DCT DIRBO/N0366F230 T902 RARUP RARUP6A |
| Aircraft | A321/M-SDE2E3FGIJ1LORWXYZ/HB1 |
Departure
| Time | 2026-05-07 19:44 |
|---|---|
| Airport | Munich Airport (EDDM) |
Arrival
| Time | 2026-05-07 20:46 |
|---|---|
| Airport | Hamburg Helmut Schmidt Airport (EDDH) |
| Time | Latitude | Longitude | Altitude | Speed | Heading |
|---|---|---|---|---|---|
| 2026-05-07 19:12 | 48.35099 | 11.79372 | 1486 ft | 0 kts | 263° |
| 2026-05-07 19:33 | 48.35101 | 11.79400 | 1473 ft | 4 kts | 263° |
| 2026-05-07 19:34 | 48.35104 | 11.79440 | 1480 ft | 4 kts | 263° |
| 2026-05-07 19:34 | 48.35106 | 11.79471 | 1486 ft | 4 kts | 273° |
| 2026-05-07 19:34 | 48.35100 | 11.79507 | 1482 ft | 4 kts | 318° |
| 2026-05-07 19:34 | 48.35079 | 11.79519 | 1471 ft | 4 kts | 353° |
| 2026-05-07 19:35 | 48.35065 | 11.79522 | 1471 ft | 0 kts | 353° |
| 2026-05-07 19:38 | 48.35066 | 11.79521 | 1471 ft | 2 kts | 353° |
| 2026-05-07 19:38 | 48.35124 | 11.79547 | 1480 ft | 18 kts | 19° |
| 2026-05-07 19:38 | 48.35274 | 11.79553 | 1486 ft | 23 kts | 354° |
| 2026-05-07 19:38 | 48.35443 | 11.79525 | 1482 ft | 26 kts | 353° |
| 2026-05-07 19:39 | 48.35630 | 11.79493 | 1475 ft | 27 kts | 353° |
| 2026-05-07 19:39 | 48.35804 | 11.79461 | 1478 ft | 23 kts | 353° |
| 2026-05-07 19:39 | 48.35950 | 11.79493 | 1486 ft | 18 kts | 10° |
| 2026-05-07 19:39 | 48.36083 | 11.79481 | 1481 ft | 20 kts | 353° |
| 2026-05-07 19:40 | 48.36203 | 11.79493 | 1484 ft | 16 kts | 43° |
| 2026-05-07 19:40 | 48.36228 | 11.79665 | 1486 ft | 19 kts | 83° |
| 2026-05-07 19:40 | 48.36245 | 11.79880 | 1486 ft | 22 kts | 83° |
| 2026-05-07 19:40 | 48.36264 | 11.80128 | 1486 ft | 25 kts | 83° |
| 2026-05-07 19:41 | 48.36283 | 11.80373 | 1482 ft | 17 kts | 83° |
| 2026-05-07 19:41 | 48.36315 | 11.80508 | 1478 ft | 12 kts | 32° |
| 2026-05-07 19:41 | 48.36366 | 11.80480 | 1477 ft | 9 kts | 303° |
| 2026-05-07 19:41 | 48.36396 | 11.80379 | 1480 ft | 12 kts | 293° |
| 2026-05-07 19:42 | 48.36429 | 11.80266 | 1476 ft | 7 kts | 293° |
| 2026-05-07 19:42 | 48.36436 | 11.80244 | 1481 ft | 0 kts | 293° |
| 2026-05-07 19:42 | 48.36437 | 11.80237 | 1479 ft | 2 kts | 293° |
| 2026-05-07 19:42 | 48.36456 | 11.80171 | 1479 ft | 11 kts | 293° |
| 2026-05-07 19:43 | 48.36492 | 11.80044 | 1484 ft | 15 kts | 292° |
| 2026-05-07 19:43 | 48.36513 | 11.79868 | 1486 ft | 21 kts | 270° |
| 2026-05-07 19:43 | 48.36478 | 11.79371 | 1482 ft | 91 kts | 263° |
| 2026-05-07 19:43 | 48.36377 | 11.78020 | 1621 ft | 156 kts | 264° |
| 2026-05-07 19:44 | 48.36268 | 11.76415 | 2587 ft | 154 kts | 266° |
| 2026-05-07 19:44 | 48.36169 | 11.74757 | 3362 ft | 168 kts | 265° |
| 2026-05-07 19:44 | 48.36051 | 11.72911 | 3912 ft | 186 kts | 264° |
| 2026-05-07 19:44 | 48.35912 | 11.70922 | 4574 ft | 196 kts | 264° |
| 2026-05-07 19:45 | 48.35757 | 11.68845 | 5246 ft | 203 kts | 264° |
| 2026-05-07 19:45 | 48.36038 | 11.66674 | 5591 ft | 228 kts | 301° |
| 2026-05-07 19:45 | 48.37318 | 11.65089 | 6023 ft | 257 kts | 335° |
| 2026-05-07 19:45 | 48.39093 | 11.64306 | 6810 ft | 270 kts | 347° |
| 2026-05-07 19:46 | 48.40953 | 11.63869 | 7770 ft | 276 kts | 350° |
| 2026-05-07 19:46 | 48.42882 | 11.63507 | 8818 ft | 281 kts | 349° |
| 2026-05-07 19:46 | 48.44829 | 11.63101 | 9860 ft | 284 kts | 345° |
| 2026-05-07 19:46 | 48.46749 | 11.62205 | 10558 ft | 298 kts | 337° |
| 2026-05-07 19:47 | 48.48781 | 11.61130 | 10985 ft | 320 kts | 337° |
| 2026-05-07 19:47 | 48.50922 | 11.59994 | 11727 ft | 330 kts | 337° |
| 2026-05-07 19:47 | 48.53111 | 11.58836 | 12600 ft | 335 kts | 338° |
| 2026-05-07 19:47 | 48.55328 | 11.57666 | 13513 ft | 339 kts | 338° |
| 2026-05-07 19:48 | 48.57573 | 11.56479 | 14336 ft | 344 kts | 338° |
| 2026-05-07 19:48 | 48.59842 | 11.55278 | 15152 ft | 347 kts | 338° |
| 2026-05-07 19:48 | 48.62234 | 11.54493 | 15944 ft | 355 kts | 348° |
| 2026-05-07 19:48 | 48.64664 | 11.53968 | 16767 ft | 358 kts | 348° |
| 2026-05-07 19:49 | 48.67148 | 11.53437 | 17584 ft | 362 kts | 348° |
| 2026-05-07 19:49 | 48.69655 | 11.52902 | 18369 ft | 365 kts | 348° |
| 2026-05-07 19:49 | 48.72184 | 11.52363 | 19064 ft | 369 kts | 348° |
| 2026-05-07 19:49 | 48.74744 | 11.51816 | 19780 ft | 372 kts | 348° |
| 2026-05-07 19:50 | 48.77323 | 11.51266 | 20491 ft | 375 kts | 348° |
| 2026-05-07 19:50 | 48.79924 | 11.50713 | 21178 ft | 379 kts | 348° |
| 2026-05-07 19:50 | 48.82554 | 11.50155 | 21847 ft | 382 kts | 348° |
| 2026-05-07 19:50 | 48.85202 | 11.49586 | 22511 ft | 385 kts | 348° |
| 2026-05-07 19:51 | 48.87838 | 11.49017 | 23153 ft | 389 kts | 348° |
| 2026-05-07 19:51 | 48.90529 | 11.48434 | 23761 ft | 392 kts | 348° |
| 2026-05-07 19:51 | 48.93249 | 11.47844 | 24304 ft | 396 kts | 348° |
| 2026-05-07 19:51 | 48.95991 | 11.47250 | 24853 ft | 400 kts | 349° |
| 2026-05-07 19:52 | 48.98764 | 11.46648 | 25360 ft | 404 kts | 349° |
| 2026-05-07 19:52 | 49.01567 | 11.46039 | 25897 ft | 407 kts | 349° |
| 2026-05-07 19:52 | 49.04387 | 11.45430 | 26434 ft | 411 kts | 349° |
| 2026-05-07 19:52 | 49.07194 | 11.44840 | 26958 ft | 414 kts | 350° |
| 2026-05-07 19:53 | 49.10074 | 11.44323 | 27485 ft | 418 kts | 351° |
| 2026-05-07 19:53 | 49.12983 | 11.43874 | 28009 ft | 421 kts | 352° |
| 2026-05-07 19:53 | 49.15915 | 11.43457 | 28536 ft | 424 kts | 352° |
| 2026-05-07 19:53 | 49.18871 | 11.43049 | 29054 ft | 427 kts | 352° |
| 2026-05-07 19:54 | 49.21838 | 11.42629 | 29593 ft | 430 kts | 352° |
| 2026-05-07 19:54 | 49.24829 | 11.42188 | 30123 ft | 433 kts | 352° |
| 2026-05-07 19:54 | 49.27837 | 11.41729 | 30547 ft | 436 kts | 352° |
| 2026-05-07 19:54 | 49.30865 | 11.41259 | 30933 ft | 439 kts | 352° |
| 2026-05-07 19:55 | 49.33916 | 11.40782 | 31312 ft | 443 kts | 352° |
| 2026-05-07 19:55 | 49.36996 | 11.40301 | 31665 ft | 446 kts | 352° |
| 2026-05-07 19:55 | 49.39044 | 11.39983 | 31905 ft | 448 kts | 352° |
| 2026-05-07 19:55 | 49.42138 | 11.39503 | 32389 ft | 447 kts | 352° |
| 2026-05-07 19:56 | 49.45232 | 11.39023 | 32888 ft | 446 kts | 352° |
| 2026-05-07 19:56 | 49.48320 | 11.38545 | 33347 ft | 446 kts | 352° |
| 2026-05-07 19:56 | 49.51411 | 11.38065 | 33801 ft | 447 kts | 352° |
| 2026-05-07 19:56 | 49.54502 | 11.37583 | 34219 ft | 447 kts | 352° |
| 2026-05-07 19:57 | 49.57599 | 11.37097 | 34581 ft | 447 kts | 351° |
| 2026-05-07 19:57 | 49.60696 | 11.36612 | 34933 ft | 448 kts | 351° |
| 2026-05-07 19:57 | 49.63802 | 11.36124 | 35313 ft | 449 kts | 352° |
| 2026-05-07 19:57 | 49.66909 | 11.35636 | 35674 ft | 449 kts | 352° |
| 2026-05-07 19:58 | 49.70020 | 11.35152 | 35977 ft | 451 kts | 352° |
| 2026-05-07 19:58 | 49.73136 | 11.34666 | 36057 ft | 448 kts | 352° |
| 2026-05-07 19:58 | 49.79301 | 11.33697 | 36065 ft | 443 kts | 352° |
| 2026-05-07 19:59 | 49.85431 | 11.32726 | 36065 ft | 443 kts | 351° |
| 2026-05-07 19:59 | 49.91559 | 11.31755 | 36064 ft | 443 kts | 352° |
| 2026-05-07 20:00 | 49.97691 | 11.30787 | 36071 ft | 443 kts | 352° |
| 2026-05-07 20:00 | 50.03821 | 11.29821 | 36071 ft | 443 kts | 352° |
| 2026-05-07 20:01 | 50.09954 | 11.28842 | 36085 ft | 443 kts | 352° |
| 2026-05-07 20:01 | 50.16090 | 11.27847 | 36084 ft | 443 kts | 352° |
| 2026-05-07 20:02 | 50.22233 | 11.26870 | 36082 ft | 443 kts | 352° |
| 2026-05-07 20:02 | 50.28370 | 11.25884 | 36082 ft | 444 kts | 352° |
| 2026-05-07 20:03 | 50.34511 | 11.24896 | 36093 ft | 444 kts | 352° |
| 2026-05-07 20:03 | 50.40652 | 11.23903 | 36091 ft | 444 kts | 352° |
| 2026-05-07 20:04 | 50.46792 | 11.22911 | 36095 ft | 444 kts | 352° |
| 2026-05-07 20:04 | 50.52934 | 11.21918 | 36095 ft | 444 kts | 352° |
| 2026-05-07 20:05 | 50.59074 | 11.20919 | 36098 ft | 443 kts | 352° |
| 2026-05-07 20:05 | 50.65208 | 11.19923 | 36105 ft | 443 kts | 352° |
| 2026-05-07 20:06 | 50.71340 | 11.18920 | 36110 ft | 443 kts | 352° |
| 2026-05-07 20:06 | 50.77472 | 11.17906 | 36112 ft | 443 kts | 352° |
| 2026-05-07 20:07 | 50.83599 | 11.16897 | 36119 ft | 443 kts | 352° |
| 2026-05-07 20:07 | 50.89724 | 11.15887 | 36122 ft | 443 kts | 352° |
| 2026-05-07 20:08 | 50.95853 | 11.14882 | 36125 ft | 443 kts | 352° |
| 2026-05-07 20:08 | 51.01979 | 11.13874 | 36124 ft | 443 kts | 352° |
| 2026-05-07 20:09 | 51.08109 | 11.12851 | 36128 ft | 443 kts | 352° |
| 2026-05-07 20:10 | 51.17305 | 11.11319 | 36120 ft | 443 kts | 352° |
| 2026-05-07 20:10 | 51.23433 | 11.10290 | 36118 ft | 443 kts | 352° |
| 2026-05-07 20:11 | 51.29523 | 11.09266 | 36122 ft | 443 kts | 352° |
| 2026-05-07 20:11 | 51.35656 | 11.08233 | 36116 ft | 443 kts | 352° |
| 2026-05-07 20:12 | 51.41792 | 11.07210 | 36115 ft | 443 kts | 352° |
| 2026-05-07 20:12 | 51.47926 | 11.06177 | 36122 ft | 443 kts | 352° |
| 2026-05-07 20:13 | 51.54060 | 11.05134 | 36129 ft | 443 kts | 352° |
| 2026-05-07 20:13 | 51.60192 | 11.04085 | 36129 ft | 443 kts | 352° |
| 2026-05-07 20:14 | 51.66319 | 11.03028 | 36122 ft | 443 kts | 352° |
| 2026-05-07 20:14 | 51.72449 | 11.01979 | 36126 ft | 443 kts | 352° |
| 2026-05-07 20:15 | 51.78621 | 11.00927 | 36129 ft | 443 kts | 353° |
| 2026-05-07 20:15 | 51.84751 | 10.99882 | 36130 ft | 443 kts | 353° |
| 2026-05-07 20:16 | 51.90884 | 10.98829 | 36124 ft | 443 kts | 352° |
| 2026-05-07 20:16 | 51.96974 | 10.97772 | 36126 ft | 443 kts | 352° |
| 2026-05-07 20:17 | 52.03108 | 10.96710 | 35682 ft | 445 kts | 353° |
| 2026-05-07 20:17 | 52.06177 | 10.96174 | 35075 ft | 443 kts | 353° |
| 2026-05-07 20:17 | 52.09233 | 10.95638 | 34486 ft | 440 kts | 353° |
| 2026-05-07 20:17 | 52.12311 | 10.95096 | 33854 ft | 438 kts | 353° |
| 2026-05-07 20:18 | 52.15295 | 10.94572 | 33170 ft | 435 kts | 353° |
| 2026-05-07 20:18 | 52.18295 | 10.94051 | 32495 ft | 433 kts | 353° |
| 2026-05-07 20:18 | 52.21281 | 10.93534 | 31841 ft | 430 kts | 353° |
| 2026-05-07 20:18 | 52.24243 | 10.93021 | 31201 ft | 426 kts | 353° |
| 2026-05-07 20:19 | 52.27181 | 10.92507 | 30572 ft | 422 kts | 353° |
| 2026-05-07 20:19 | 52.30086 | 10.91996 | 29915 ft | 418 kts | 353° |
| 2026-05-07 20:19 | 52.32964 | 10.91491 | 29188 ft | 414 kts | 353° |
| 2026-05-07 20:19 | 52.35812 | 10.90990 | 28496 ft | 410 kts | 353° |
| 2026-05-07 20:20 | 52.38632 | 10.90489 | 27814 ft | 406 kts | 353° |
| 2026-05-07 20:20 | 52.41424 | 10.89995 | 27147 ft | 402 kts | 353° |
| 2026-05-07 20:20 | 52.44189 | 10.89505 | 26498 ft | 398 kts | 353° |
| 2026-05-07 20:20 | 52.46927 | 10.89018 | 25858 ft | 394 kts | 353° |
| 2026-05-07 20:21 | 52.49643 | 10.88538 | 25232 ft | 391 kts | 353° |
| 2026-05-07 20:21 | 52.52336 | 10.88065 | 24625 ft | 388 kts | 353° |
| 2026-05-07 20:21 | 52.55013 | 10.87595 | 24026 ft | 385 kts | 353° |
| 2026-05-07 20:21 | 52.57671 | 10.87125 | 23390 ft | 383 kts | 352° |
| 2026-05-07 20:22 | 52.60308 | 10.86655 | 22702 ft | 380 kts | 352° |
| 2026-05-07 20:22 | 52.62919 | 10.86188 | 22030 ft | 377 kts | 352° |
| 2026-05-07 20:22 | 52.65517 | 10.85721 | 21368 ft | 374 kts | 352° |
| 2026-05-07 20:22 | 52.68095 | 10.85257 | 20721 ft | 371 kts | 353° |
| 2026-05-07 20:23 | 52.70650 | 10.84801 | 20086 ft | 368 kts | 353° |
| 2026-05-07 20:23 | 52.73179 | 10.84348 | 19471 ft | 365 kts | 353° |
| 2026-05-07 20:23 | 52.75760 | 10.83881 | 18871 ft | 382 kts | 353° |
| 2026-05-07 20:23 | 52.78426 | 10.83400 | 18263 ft | 387 kts | 353° |
| 2026-05-07 20:24 | 52.81096 | 10.82923 | 17581 ft | 385 kts | 353° |
| 2026-05-07 20:24 | 52.83753 | 10.82449 | 16904 ft | 381 kts | 353° |
| 2026-05-07 20:24 | 52.86374 | 10.81980 | 16251 ft | 377 kts | 353° |
| 2026-05-07 20:24 | 52.88970 | 10.81514 | 15623 ft | 374 kts | 353° |
| 2026-05-07 20:25 | 52.91544 | 10.81051 | 15008 ft | 370 kts | 353° |
| 2026-05-07 20:25 | 52.94090 | 10.80590 | 14395 ft | 367 kts | 353° |
| 2026-05-07 20:25 | 52.96612 | 10.80133 | 13775 ft | 363 kts | 353° |
| 2026-05-07 20:25 | 52.99116 | 10.79678 | 13089 ft | 360 kts | 353° |
| 2026-05-07 20:26 | 53.01591 | 10.79227 | 12444 ft | 356 kts | 353° |
| 2026-05-07 20:26 | 53.04037 | 10.78782 | 11801 ft | 352 kts | 353° |
| 2026-05-07 20:26 | 53.06462 | 10.78343 | 11267 ft | 348 kts | 353° |
| 2026-05-07 20:26 | 53.08873 | 10.77906 | 11105 ft | 349 kts | 353° |
| 2026-05-07 20:27 | 53.11283 | 10.77469 | 11117 ft | 349 kts | 353° |
| 2026-05-07 20:27 | 53.13697 | 10.77032 | 11120 ft | 349 kts | 353° |
| 2026-05-07 20:27 | 53.16116 | 10.76590 | 11123 ft | 349 kts | 354° |
| 2026-05-07 20:27 | 53.18532 | 10.76147 | 11123 ft | 349 kts | 354° |
| 2026-05-07 20:28 | 53.20946 | 10.75707 | 11121 ft | 349 kts | 354° |
| 2026-05-07 20:28 | 53.23360 | 10.75266 | 11124 ft | 349 kts | 354° |
| 2026-05-07 20:28 | 53.25735 | 10.74828 | 10960 ft | 345 kts | 354° |
| 2026-05-07 20:28 | 53.28103 | 10.74378 | 10349 ft | 341 kts | 354° |
| 2026-05-07 20:29 | 53.30465 | 10.73892 | 10157 ft | 343 kts | 351° |
| 2026-05-07 20:29 | 53.32699 | 10.72588 | 9985 ft | 337 kts | 330° |
| 2026-05-07 20:29 | 53.34579 | 10.70465 | 9815 ft | 316 kts | 325° |
| 2026-05-07 20:29 | 53.36314 | 10.68373 | 9684 ft | 298 kts | 324° |
| 2026-05-07 20:30 | 53.37955 | 10.66380 | 9433 ft | 287 kts | 324° |
| 2026-05-07 20:30 | 53.39556 | 10.64426 | 9015 ft | 283 kts | 324° |
| 2026-05-07 20:30 | 53.41138 | 10.62484 | 8563 ft | 281 kts | 324° |
| 2026-05-07 20:30 | 53.42705 | 10.60548 | 8120 ft | 279 kts | 324° |
| 2026-05-07 20:31 | 53.44277 | 10.58590 | 7671 ft | 277 kts | 324° |
| 2026-05-07 20:31 | 53.45811 | 10.56648 | 7239 ft | 275 kts | 322° |
| 2026-05-07 20:31 | 53.46985 | 10.54198 | 6824 ft | 276 kts | 296° |
| 2026-05-07 20:31 | 53.47429 | 10.51081 | 6376 ft | 277 kts | 277° |
| 2026-05-07 20:32 | 53.47584 | 10.47860 | 5884 ft | 277 kts | 275° |
| 2026-05-07 20:32 | 53.47714 | 10.44640 | 5425 ft | 276 kts | 274° |
| 2026-05-07 20:32 | 53.47844 | 10.41428 | 5045 ft | 274 kts | 274° |
| 2026-05-07 20:32 | 53.47975 | 10.38233 | 4994 ft | 276 kts | 274° |
| 2026-05-07 20:33 | 53.47983 | 10.35014 | 4995 ft | 276 kts | 261° |
| 2026-05-07 20:33 | 53.47557 | 10.31873 | 5002 ft | 275 kts | 255° |
| 2026-05-07 20:33 | 53.47067 | 10.28769 | 5005 ft | 275 kts | 255° |
| 2026-05-07 20:33 | 53.46568 | 10.25669 | 5007 ft | 275 kts | 254° |
| 2026-05-07 20:34 | 53.46070 | 10.22569 | 5005 ft | 275 kts | 254° |
| 2026-05-07 20:34 | 53.45570 | 10.19470 | 5007 ft | 275 kts | 254° |
| 2026-05-07 20:34 | 53.45071 | 10.16372 | 5007 ft | 275 kts | 254° |
| 2026-05-07 20:34 | 53.44571 | 10.13275 | 5006 ft | 275 kts | 254° |
| 2026-05-07 20:35 | 53.44071 | 10.10181 | 5004 ft | 275 kts | 254° |
| 2026-05-07 20:35 | 53.43572 | 10.07093 | 4852 ft | 273 kts | 254° |
| 2026-05-07 20:35 | 53.43080 | 10.04024 | 4388 ft | 272 kts | 254° |
| 2026-05-07 20:35 | 53.42596 | 10.00974 | 4037 ft | 268 kts | 254° |
| 2026-05-07 20:36 | 53.42117 | 9.97939 | 3992 ft | 271 kts | 254° |
| 2026-05-07 20:36 | 53.41635 | 9.94882 | 3998 ft | 272 kts | 254° |
| 2026-05-07 20:36 | 53.41152 | 9.91818 | 3920 ft | 270 kts | 254° |
| 2026-05-07 20:36 | 53.40668 | 9.88741 | 3492 ft | 269 kts | 254° |
| 2026-05-07 20:37 | 53.40202 | 9.85756 | 3092 ft | 267 kts | 254° |
| 2026-05-07 20:37 | 53.39735 | 9.82755 | 3003 ft | 267 kts | 254° |
| 2026-05-07 20:37 | 53.39352 | 9.79702 | 3001 ft | 269 kts | 267° |
| 2026-05-07 20:37 | 53.39699 | 9.76731 | 3003 ft | 253 kts | 297° |
| 2026-05-07 20:38 | 53.40695 | 9.74473 | 3011 ft | 230 kts | 316° |
| 2026-05-07 20:38 | 53.41879 | 9.72766 | 3005 ft | 221 kts | 323° |
| 2026-05-07 20:38 | 53.43042 | 9.71230 | 2999 ft | 205 kts | 324° |
| 2026-05-07 20:38 | 53.44143 | 9.69784 | 3007 ft | 198 kts | 324° |
| 2026-05-07 20:39 | 53.45311 | 9.68652 | 2999 ft | 192 kts | 350° |
| 2026-05-07 20:39 | 53.46198 | 9.68545 | 3015 ft | 189 kts | 6° |
| 2026-05-07 20:39 | 53.47455 | 9.68965 | 3010 ft | 179 kts | 24° |
| 2026-05-07 20:39 | 53.48527 | 9.69936 | 3011 ft | 173 kts | 40° |
| 2026-05-07 20:40 | 53.49368 | 9.71337 | 3010 ft | 170 kts | 53° |
| 2026-05-07 20:40 | 53.50128 | 9.72858 | 3012 ft | 170 kts | 53° |
| 2026-05-07 20:40 | 53.50887 | 9.74374 | 3011 ft | 169 kts | 53° |
| 2026-05-07 20:40 | 53.51645 | 9.75892 | 3010 ft | 170 kts | 53° |
| 2026-05-07 20:41 | 53.52404 | 9.77413 | 2947 ft | 170 kts | 53° |
| 2026-05-07 20:41 | 53.53161 | 9.78932 | 2783 ft | 169 kts | 53° |
| 2026-05-07 20:41 | 53.53898 | 9.80408 | 2573 ft | 161 kts | 53° |
| 2026-05-07 20:41 | 53.54591 | 9.81799 | 2373 ft | 149 kts | 53° |
| 2026-05-07 20:42 | 53.55233 | 9.83086 | 2164 ft | 139 kts | 53° |
| 2026-05-07 20:42 | 53.55832 | 9.84290 | 1980 ft | 131 kts | 54° |
| 2026-05-07 20:42 | 53.56403 | 9.85440 | 1793 ft | 126 kts | 53° |
| 2026-05-07 20:42 | 53.56962 | 9.86564 | 1631 ft | 124 kts | 53° |
| 2026-05-07 20:43 | 53.57515 | 9.87679 | 1456 ft | 124 kts | 53° |
| 2026-05-07 20:43 | 53.58069 | 9.88793 | 1289 ft | 124 kts | 53° |
| 2026-05-07 20:43 | 53.58622 | 9.89908 | 1117 ft | 124 kts | 53° |
| 2026-05-07 20:43 | 53.59165 | 9.91004 | 949 ft | 121 kts | 53° |
| 2026-05-07 20:44 | 53.59698 | 9.92084 | 782 ft | 120 kts | 53° |
| 2026-05-07 20:44 | 53.60230 | 9.93173 | 603 ft | 121 kts | 50° |
| 2026-05-07 20:44 | 53.60778 | 9.94249 | 452 ft | 121 kts | 51° |
| 2026-05-07 20:44 | 53.61319 | 9.95350 | 292 ft | 123 kts | 51° |
| 2026-05-07 20:45 | 53.61861 | 9.96452 | 121 ft | 122 kts | 50° |
| 2026-05-07 20:45 | 53.62392 | 9.97539 | 42 ft | 113 kts | 51° |
| 2026-05-07 20:45 | 53.62807 | 9.98364 | 44 ft | 70 kts | 51° |
| 2026-05-07 20:45 | 53.63081 | 9.98918 | 46 ft | 57 kts | 50° |
| 2026-05-07 20:46 | 53.63277 | 9.99338 | 45 ft | 28 kts | 66° |
| 2026-05-07 20:46 | 53.63287 | 9.99569 | 48 ft | 10 kts | 99° |
| 2026-05-07 20:46 | 53.63280 | 9.99631 | 49 ft | 1 kts | 99° |
| 2026-05-07 20:46 | 53.63280 | 9.99633 | 49 ft | 0 kts | 99° |
| 2026-05-07 20:47 | 53.63280 | 9.99638 | 49 ft | 3 kts | 99° |
| 2026-05-07 20:47 | 53.63279 | 9.99736 | 49 ft | 12 kts | 77° |
| 2026-05-07 20:47 | 53.63331 | 9.99869 | 49 ft | 16 kts | 51° |
| 2026-05-07 20:47 | 53.63406 | 10.00023 | 49 ft | 17 kts | 50° |
| 2026-05-07 20:48 | 53.63441 | 10.00105 | 49 ft | 4 kts | 76° |
| 2026-05-07 20:48 | 53.63438 | 10.00141 | 49 ft | 3 kts | 99° |
| 2026-05-07 20:48 | 53.63433 | 10.00191 | 49 ft | 6 kts | 100° |
| 2026-05-07 20:48 | 53.63423 | 10.00280 | 49 ft | 9 kts | 100° |
| 2026-05-07 20:49 | 53.63418 | 10.00330 | 49 ft | 3 kts | 101° |
| 2026-05-07 20:49 | 53.63416 | 10.00343 | 49 ft | 1 kts | 101° |
| 2026-05-07 20:49 | 53.63416 | 10.00348 | 49 ft | 0 kts | 101° |